CST,Max TemperatureF,Mean TemperatureF,Min TemperatureF,Max Dew PointF,MeanDew PointF,Min DewpointF,Max Humidity, Mean Humidity, Min Humidity, Max Sea Level PressureIn, Mean Sea Level PressureIn, Min Sea Level PressureIn, Max VisibilityMiles, Mean VisibilityMiles, Min VisibilityMiles, Max Wind SpeedMPH, Mean Wind SpeedMPH, Max Gust SpeedMPH,PrecipitationIn, CloudCover, Events, WindDirDegrees
2013-1-1,17,14,10,8,2,-2,74,62,43,30.19,30.09,29.96,10,10,10,10,7,,0.00,5,,286
2013-1-2,21,18,15,14,13,10,88,79,71,30.10,30.03,29.97,10,9,4,9,6,,0.00,8,Snow,190
2013-1-3,25,18,10,18,13,7,88,75,63,30.06,30.01,29.87,10,10,7,14,5,23,0.00,5,,273
2013-1-4,35,25,14,18,13,9,88,67,48,30.13,29.97,29.86,10,10,10,13,9,23,0.00,1,,290
2013-1-5,28,18,8,22,13,4,92,81,66,30.17,30.01,29.82,10,10,7,9,2,,0.00,2,,160
2013-1-6,28,18,8,23,15,5,92,77,60,30.21,30.03,29.77,10,10,10,18,7,23,0.00,5,,334
2013-1-7,37,22,7,22,15,5,92,70,54,30.17,29.95,29.83,10,10,9,14,7,25,0.00,0,,195
2013-1-8,37,24,12,28,21,10,100,80,57,30.09,29.97,29.73,10,7,0,16,4,23,0.00,1,Fog,171
2013-1-9,36,28,15,28,22,12,88,66,52,30.42,30.00,29.74,10,10,9,29,11,46,0.00,4,,272
2013-1-10,37,26,14,32,23,12,93,79,48,30.47,30.26,29.92,10,10,5,12,4,,0.01,3,Rain,144
2013-1-11,39,36,33,38,35,32,100,97,92,29.90,29.64,29.49,10,3,0,13,7,,0.01,8,Fog-Rain,151
2013-1-12,43,32,21,41,29,12,100,79,64,29.94,29.62,29.42,10,8,0,26,10,38,0.00,7,Fog,216
2013-1-13,21,16,10,11,9,3,79,68,60,30.09,29.96,29.87,10,8,1,15,9,22,0.00,8,Snow,311
2013-1-14,23,14,6,5,2,-1,80,65,44,30.36,30.29,30.12,10,10,10,14,7,20,0.00,2,,264
2013-1-15,28,16,3,11,6,-1,87,67,43,30.37,30.20,29.96,10,10,10,12,5,18,0.00,1,,193
2013-1-16,28,22,15,22,14,7,86,74,53,30.05,29.76,29.54,10,7,2,17,11,24,0.00,7,Snow,266
2013-1-17,14,7,0,5,-3,-6,83,64,46,30.36,30.27,30.11,10,10,10,17,8,23,0.00,3,,299
2013-1-18,17,8,0,13,5,-6,86,81,72,30.36,30.00,29.69,10,6,0,10,3,,0.03,7,Fog-Snow,139
2013-1-19,37,22,6,30,15,-2,93,77,62,29.81,29.62,29.43,10,6,0,33,10,46,0.00,7,Fog-Rain-Snow,297
2013-1-20,10,5,-2,-2,-5,-10,72,65,48,30.20,30.09,29.82,10,9,3,25,16,37,0.00,5,Snow,294
2013-1-21,-2,-6,-11,-11,-19,-25,72,59,44,30.19,30.12,30.06,10,10,10,20,11,29,0.00,4,,289
2013-1-22,1,-7,-15,-14,-17,-22,71,61,49,30.29,30.24,30.07,10,10,10,13,6,20,0.00,1,,288
2013-1-23,9,0,-8,3,-5,-17,80,70,62,30.45,30.14,29.98,10,7,1,17,8,24,0.00,5,Snow,303
2013-1-24,10,1,-8,3,-7,-13,80,62,42,30.68,30.53,30.28,10,9,1,13,7,,0.00,2,Snow,215
2013-1-25,17,11,5,12,7,2,87,81,68,30.32,30.02,29.84,10,4,0,9,6,,0.00,8,Fog-Snow,189
2013-1-26,23,13,3,12,8,1,92,72,55,30.37,30.29,30.15,10,10,10,10,6,,0.00,3,,309
2013-1-27,30,24,19,28,21,10,93,80,58,30.29,30.09,29.87,10,5,1,13,8,,0.02,7,Snow,147
2013-1-28,35,32,28,30,29,28,100,90,76,29.94,29.83,29.76,10,6,1,10,4,,0.06,8,Snow,72
2013-1-29,37,34,30,36,32,27,100,93,75,29.80,29.56,29.45,10,6,0,16,9,23,0.03,8,Fog-Rain,332
2013-1-30,33,22,10,28,16,5,86,82,74,29.54,29.40,29.31,10,3,0,22,16,30,0.00,8,Fog-Snow,342
2013-1-31,14,10,5,7,3,-1,85,74,62,29.99,29.68,29.47,10,5,2,20,11,28,0.00,8,Snow,315